Terminal Aerodrome Forecast
Issued by NWS

Home | Current Version | Previous Version | Text Only | Print | Product List | Glossary On
Versions: 1 2 3 4 5 6 7 8 9 10 11 12 13 14 15 16 17 18 19 20 21 22 23 24 25 26 27 28
000
FTUS45 KGJT 031120
TAFRIL
TAF
KRIL 031120Z 0312/0412 12003KT P6SM VCSH SCT070 BKN100
      TEMPO 0312/0316 -SHRA BKN070
     FM031700 27008KT P6SM VCTS SCT070CB BKN090
     FM032000 25012G20KT P6SM -SHRA VCTS SCT050CB BKN080
      TEMPO 0320/0324 VRB20G30KT 6SM TSRA BKN050CB
     FM040300 14005KT P6SM VCSH SCT070 BKN100
     FM040500 17003KT P6SM FEW100=

USA.gov is the U.S. government's official web portal to all federal, state and local government web resources and services.